sensor_id;sensor_type;location;lat;lon;timestamp;temperature;humidity
24730;DHT22;12832;52.392;13.066;2023-04-25T00:01:22;25.90;34.10
24730;DHT22;12832;52.392;13.066;2023-04-25T00:03:49;25.90;34.10
24730;DHT22;12832;52.392;13.066;2023-04-25T00:06:16;25.90;34.20
24730;DHT22;12832;52.392;13.066;2023-04-25T00:08:44;25.90;34.10
24730;DHT22;12832;52.392;13.066;2023-04-25T00:11:10;25.90;34.10
24730;DHT22;12832;52.392;13.066;2023-04-25T00:13:36;25.90;34.10
24730;DHT22;12832;52.392;13.066;2023-04-25T00:16:02;25.90;34.20
24730;DHT22;12832;52.392;13.066;2023-04-25T00:18:28;25.90;34.10
24730;DHT22;12832;52.392;13.066;2023-04-25T00:20:55;25.90;34.10
24730;DHT22;12832;52.392;13.066;2023-04-25T00:23:21;25.90;34.10
24730;DHT22;12832;52.392;13.066;2023-04-25T00:25:48;25.90;34.10
24730;DHT22;12832;52.392;13.066;2023-04-25T00:28:15;25.90;34.10
24730;DHT22;12832;52.392;13.066;2023-04-25T00:30:42;25.90;34.10
24730;DHT22;12832;52.392;13.066;2023-04-25T00:33:09;25.90;34.10
24730;DHT22;12832;52.392;13.066;2023-04-25T00:35:36;25.90;34.20
24730;DHT22;12832;52.392;13.066;2023-04-25T00:38:02;25.90;34.20
24730;DHT22;12832;52.392;13.066;2023-04-25T00:40:28;25.90;34.20
24730;DHT22;12832;52.392;13.066;2023-04-25T00:42:54;25.90;34.10
24730;DHT22;12832;52.392;13.066;2023-04-25T00:45:21;26.00;34.20
24730;DHT22;12832;52.392;13.066;2023-04-25T00:47:47;25.90;34.20
24730;DHT22;12832;52.392;13.066;2023-04-25T00:50:13;25.90;34.20
24730;DHT22;12832;52.392;13.066;2023-04-25T00:52:42;25.90;34.10
24730;DHT22;12832;52.392;13.066;2023-04-25T00:55:09;25.90;34.10
24730;DHT22;12832;52.392;13.066;2023-04-25T00:57:36;25.90;34.20
24730;DHT22;12832;52.392;13.066;2023-04-25T01:00:05;25.90;34.20
24730;DHT22;12832;52.392;13.066;2023-04-25T01:02:32;25.90;34.20
24730;DHT22;12832;52.392;13.066;2023-04-25T01:04:59;25.90;34.80
24730;DHT22;12832;52.392;13.066;2023-04-25T01:07:25;25.90;34.20
24730;DHT22;12832;52.392;13.066;2023-04-25T01:09:52;25.90;34.20
24730;DHT22;12832;52.392;13.066;2023-04-25T01:12:18;25.90;34.20
24730;DHT22;12832;52.392;13.066;2023-04-25T01:14:44;25.90;34.20
24730;DHT22;12832;52.392;13.066;2023-04-25T01:17:12;25.90;34.20
24730;DHT22;12832;52.392;13.066;2023-04-25T01:19:38;25.90;34.20
24730;DHT22;12832;52.392;13.066;2023-04-25T01:22:04;25.90;34.20
24730;DHT22;12832;52.392;13.066;2023-04-25T01:24:32;25.90;34.80
24730;DHT22;12832;52.392;13.066;2023-04-25T01:27:00;25.90;34.20
24730;DHT22;12832;52.392;13.066;2023-04-25T01:29:27;25.80;34.10
24730;DHT22;12832;52.392;13.066;2023-04-25T01:31:54;25.90;34.20
24730;DHT22;12832;52.392;13.066;2023-04-25T01:34:20;25.90;34.20
24730;DHT22;12832;52.392;13.066;2023-04-25T01:36:50;25.90;34.20
24730;DHT22;12832;52.392;13.066;2023-04-25T01:39:20;25.90;34.20
24730;DHT22;12832;52.392;13.066;2023-04-25T01:41:47;25.90;34.20
24730;DHT22;12832;52.392;13.066;2023-04-25T01:44:13;25.90;34.20
24730;DHT22;12832;52.392;13.066;2023-04-25T01:46:40;25.90;34.20
24730;DHT22;12832;52.392;13.066;2023-04-25T01:49:07;25.90;34.20
24730;DHT22;12832;52.392;13.066;2023-04-25T01:51:33;25.90;34.20
24730;DHT22;12832;52.392;13.066;2023-04-25T01:54:00;25.90;34.20
24730;DHT22;12832;52.392;13.066;2023-04-25T01:56:30;25.90;34.20
24730;DHT22;12832;52.392;13.066;2023-04-25T01:58:57;25.90;34.20
24730;DHT22;12832;52.392;13.066;2023-04-25T02:01:23;25.90;34.20
24730;DHT22;12832;52.392;13.066;2023-04-25T02:03:49;25.90;34.20
24730;DHT22;12832;52.392;13.066;2023-04-25T02:06:16;25.90;34.20
24730;DHT22;12832;52.392;13.066;2023-04-25T02:08:42;25.90;34.20
24730;DHT22;12832;52.392;13.066;2023-04-25T02:11:08;25.90;34.30
24730;DHT22;12832;52.392;13.066;2023-04-25T02:13:34;25.90;34.40
24730;DHT22;12832;52.392;13.066;2023-04-25T02:16:01;25.90;34.40
24730;DHT22;12832;52.392;13.066;2023-04-25T02:18:28;25.90;34.40
24730;DHT22;12832;52.392;13.066;2023-04-25T02:20:54;25.90;34.50
24730;DHT22;12832;52.392;13.066;2023-04-25T02:23:20;25.90;34.50
24730;DHT22;12832;52.392;13.066;2023-04-25T02:25:46;25.90;34.50
24730;DHT22;12832;52.392;13.066;2023-04-25T02:28:12;25.90;34.50
24730;DHT22;12832;52.392;13.066;2023-04-25T02:30:38;25.90;35.20
24730;DHT22;12832;52.392;13.066;2023-04-25T02:33:04;25.90;34.50
24730;DHT22;12832;52.392;13.066;2023-04-25T02:35:31;25.80;34.40
24730;DHT22;12832;52.392;13.066;2023-04-25T02:37:57;25.90;34.50
24730;DHT22;12832;52.392;13.066;2023-04-25T02:40:23;25.90;34.50
24730;DHT22;12832;52.392;13.066;2023-04-25T02:42:49;25.90;34.50
24730;DHT22;12832;52.392;13.066;2023-04-25T02:45:16;25.90;34.40
24730;DHT22;12832;52.392;13.066;2023-04-25T02:47:42;25.80;34.40
24730;DHT22;12832;52.392;13.066;2023-04-25T02:50:08;25.90;34.40
24730;DHT22;12832;52.392;13.066;2023-04-25T02:52:34;25.80;34.30
24730;DHT22;12832;52.392;13.066;2023-04-25T02:55:01;25.90;34.40
24730;DHT22;12832;52.392;13.066;2023-04-25T02:57:27;25.90;34.30
24730;DHT22;12832;52.392;13.066;2023-04-25T02:59:53;25.90;34.40
24730;DHT22;12832;52.392;13.066;2023-04-25T03:02:19;25.80;34.30
24730;DHT22;12832;52.392;13.066;2023-04-25T03:04:45;25.80;34.30
24730;DHT22;12832;52.392;13.066;2023-04-25T03:07:12;25.80;34.30
24730;DHT22;12832;52.392;13.066;2023-04-25T03:09:38;25.80;34.30
24730;DHT22;12832;52.392;13.066;2023-04-25T03:12:04;25.80;34.20
24730;DHT22;12832;52.392;13.066;2023-04-25T03:14:30;25.80;34.20
24730;DHT22;12832;52.392;13.066;2023-04-25T03:16:56;25.80;34.20
24730;DHT22;12832;52.392;13.066;2023-04-25T03:19:22;25.90;34.20
24730;DHT22;12832;52.392;13.066;2023-04-25T03:21:49;25.90;34.20
24730;DHT22;12832;52.392;13.066;2023-04-25T03:24:15;25.80;34.00
24730;DHT22;12832;52.392;13.066;2023-04-25T03:26:41;25.80;34.10
24730;DHT22;12832;52.392;13.066;2023-04-25T03:29:08;25.90;34.20
24730;DHT22;12832;52.392;13.066;2023-04-25T03:31:34;25.80;34.10
24730;DHT22;12832;52.392;13.066;2023-04-25T03:34:00;25.80;34.10
24730;DHT22;12832;52.392;13.066;2023-04-25T03:36:26;25.80;34.00
24730;DHT22;12832;52.392;13.066;2023-04-25T03:38:52;25.80;34.00
24730;DHT22;12832;52.392;13.066;2023-04-25T03:41:18;25.80;34.00
24730;DHT22;12832;52.392;13.066;2023-04-25T03:43:44;25.80;34.00
24730;DHT22;12832;52.392;13.066;2023-04-25T03:46:11;25.80;34.00
24730;DHT22;12832;52.392;13.066;2023-04-25T03:48:37;25.80;34.00
24730;DHT22;12832;52.392;13.066;2023-04-25T03:51:03;25.80;34.00
24730;DHT22;12832;52.392;13.066;2023-04-25T03:53:29;25.80;34.00
24730;DHT22;12832;52.392;13.066;2023-04-25T03:55:55;25.80;34.00
24730;DHT22;12832;52.392;13.066;2023-04-25T03:58:21;25.80;34.00
24730;DHT22;12832;52.392;13.066;2023-04-25T04:00:49;25.80;34.00
24730;DHT22;12832;52.392;13.066;2023-04-25T04:03:15;25.80;34.00
24730;DHT22;12832;52.392;13.066;2023-04-25T04:05:42;25.80;33.90
24730;DHT22;12832;52.392;13.066;2023-04-25T04:08:08;25.80;33.90
24730;DHT22;12832;52.392;13.066;2023-04-25T04:10:34;25.80;34.00
24730;DHT22;12832;52.392;13.066;2023-04-25T04:13:00;25.80;33.90
24730;DHT22;12832;52.392;13.066;2023-04-25T04:15:26;25.80;33.90
24730;DHT22;12832;52.392;13.066;2023-04-25T04:17:53;25.80;33.90
24730;DHT22;12832;52.392;13.066;2023-04-25T04:20:20;25.80;33.90
24730;DHT22;12832;52.392;13.066;2023-04-25T04:22:46;25.80;33.90
24730;DHT22;12832;52.392;13.066;2023-04-25T04:25:12;25.80;33.90
24730;DHT22;12832;52.392;13.066;2023-04-25T04:27:38;25.80;33.90
24730;DHT22;12832;52.392;13.066;2023-04-25T04:30:06;25.80;34.00
24730;DHT22;12832;52.392;13.066;2023-04-25T04:32:33;25.80;33.90
24730;DHT22;12832;52.392;13.066;2023-04-25T04:35:00;25.80;33.90
24730;DHT22;12832;52.392;13.066;2023-04-25T04:37:26;25.80;33.90
24730;DHT22;12832;52.392;13.066;2023-04-25T04:39:52;25.80;33.90
24730;DHT22;12832;52.392;13.066;2023-04-25T04:42:19;25.80;33.90
24730;DHT22;12832;52.392;13.066;2023-04-25T04:44:45;25.80;33.90
24730;DHT22;12832;52.392;13.066;2023-04-25T04:47:11;25.80;33.80
24730;DHT22;12832;52.392;13.066;2023-04-25T04:49:38;25.80;33.80
24730;DHT22;12832;52.392;13.066;2023-04-25T04:52:04;25.80;33.80
24730;DHT22;12832;52.392;13.066;2023-04-25T04:54:31;25.80;33.80
24730;DHT22;12832;52.392;13.066;2023-04-25T04:56:57;25.80;33.80
24730;DHT22;12832;52.392;13.066;2023-04-25T04:59:23;25.80;33.80
24730;DHT22;12832;52.392;13.066;2023-04-25T05:01:49;25.80;33.70
24730;DHT22;12832;52.392;13.066;2023-04-25T05:04:15;25.80;33.00
24730;DHT22;12832;52.392;13.066;2023-04-25T05:06:41;25.70;32.90
24730;DHT22;12832;52.392;13.066;2023-04-25T05:09:07;25.70;33.00
24730;DHT22;12832;52.392;13.066;2023-04-25T05:11:33;25.60;32.90
24730;DHT22;12832;52.392;13.066;2023-04-25T05:14:00;25.60;33.00
24730;DHT22;12832;52.392;13.066;2023-04-25T05:16:26;25.60;33.00
24730;DHT22;12832;52.392;13.066;2023-04-25T05:18:52;25.60;33.20
24730;DHT22;12832;52.392;13.066;2023-04-25T05:21:18;25.50;33.20
24730;DHT22;12832;52.392;13.066;2023-04-25T05:23:44;25.50;33.40
24730;DHT22;12832;52.392;13.066;2023-04-25T05:26:11;25.50;33.40
24730;DHT22;12832;52.392;13.066;2023-04-25T05:28:42;25.50;33.40
24730;DHT22;12832;52.392;13.066;2023-04-25T05:31:12;25.40;33.40
24730;DHT22;12832;52.392;13.066;2023-04-25T05:33:38;25.40;33.40
24730;DHT22;12832;52.392;13.066;2023-04-25T05:36:06;25.40;33.40
24730;DHT22;12832;52.392;13.066;2023-04-25T05:38:32;25.40;33.50
24730;DHT22;12832;52.392;13.066;2023-04-25T05:41:00;25.40;33.50
24730;DHT22;12832;52.392;13.066;2023-04-25T05:43:26;25.40;33.50
24730;DHT22;12832;52.392;13.066;2023-04-25T05:45:53;25.40;33.50
24730;DHT22;12832;52.392;13.066;2023-04-25T05:48:19;25.30;33.50
24730;DHT22;12832;52.392;13.066;2023-04-25T05:50:45;25.30;33.50
24730;DHT22;12832;52.392;13.066;2023-04-25T05:53:11;25.30;33.60
24730;DHT22;12832;52.392;13.066;2023-04-25T05:55:37;25.30;33.50
24730;DHT22;12832;52.392;13.066;2023-04-25T05:58:05;25.30;33.50
24730;DHT22;12832;52.392;13.066;2023-04-25T06:00:32;25.30;33.60
24730;DHT22;12832;52.392;13.066;2023-04-25T06:02:59;25.30;33.50
24730;DHT22;12832;52.392;13.066;2023-04-25T06:05:25;25.30;33.60
24730;DHT22;12832;52.392;13.066;2023-04-25T06:07:52;25.30;33.60
24730;DHT22;12832;52.392;13.066;2023-04-25T06:10:18;25.20;33.40
24730;DHT22;12832;52.392;13.066;2023-04-25T06:12:44;25.20;33.50
24730;DHT22;12832;52.392;13.066;2023-04-25T06:15:10;25.20;33.60
24730;DHT22;12832;52.392;13.066;2023-04-25T06:17:52;25.20;33.60
24730;DHT22;12832;52.392;13.066;2023-04-25T06:20:20;25.20;34.30
24730;DHT22;12832;52.392;13.066;2023-04-25T06:22:50;25.20;33.60
24730;DHT22;12832;52.392;13.066;2023-04-25T06:25:17;25.20;33.60
24730;DHT22;12832;52.392;13.066;2023-04-25T06:27:43;25.20;33.60
24730;DHT22;12832;52.392;13.066;2023-04-25T06:30:10;25.20;33.60
24730;DHT22;12832;52.392;13.066;2023-04-25T06:32:38;25.20;33.70
24730;DHT22;12832;52.392;13.066;2023-04-25T06:35:05;25.10;33.60
24730;DHT22;12832;52.392;13.066;2023-04-25T06:37:31;25.20;33.70
24730;DHT22;12832;52.392;13.066;2023-04-25T06:39:58;25.20;33.60
24730;DHT22;12832;52.392;13.066;2023-04-25T06:42:25;25.20;33.60
24730;DHT22;12832;52.392;13.066;2023-04-25T06:44:51;25.20;33.70
24730;DHT22;12832;52.392;13.066;2023-04-25T06:47:17;25.20;33.60
24730;DHT22;12832;52.392;13.066;2023-04-25T06:49:44;25.10;33.50
24730;DHT22;12832;52.392;13.066;2023-04-25T06:52:10;25.10;33.50
24730;DHT22;12832;52.392;13.066;2023-04-25T06:54:36;25.20;33.60
24730;DHT22;12832;52.392;13.066;2023-04-25T06:57:02;25.10;33.50
24730;DHT22;12832;52.392;13.066;2023-04-25T06:59:29;25.10;33.50
24730;DHT22;12832;52.392;13.066;2023-04-25T07:01:55;25.10;33.50
24730;DHT22;12832;52.392;13.066;2023-04-25T07:04:21;25.10;33.70
24730;DHT22;12832;52.392;13.066;2023-04-25T07:06:47;25.10;33.70
24730;DHT22;12832;52.392;13.066;2023-04-25T07:09:14;25.10;33.60
24730;DHT22;12832;52.392;13.066;2023-04-25T07:11:40;25.10;33.60
24730;DHT22;12832;52.392;13.066;2023-04-25T07:14:06;25.10;33.60
24730;DHT22;12832;52.392;13.066;2023-04-25T07:16:33;25.10;33.60
24730;DHT22;12832;52.392;13.066;2023-04-25T07:18:59;25.10;33.60
24730;DHT22;12832;52.392;13.066;2023-04-25T07:21:25;25.10;33.70
24730;DHT22;12832;52.392;13.066;2023-04-25T07:23:52;25.10;33.70
24730;DHT22;12832;52.392;13.066;2023-04-25T07:26:18;25.00;33.60
24730;DHT22;12832;52.392;13.066;2023-04-25T07:28:44;25.00;33.60
24730;DHT22;12832;52.392;13.066;2023-04-25T07:31:10;25.10;33.60
24730;DHT22;12832;52.392;13.066;2023-04-25T07:33:36;25.00;33.50
24730;DHT22;12832;52.392;13.066;2023-04-25T07:36:02;25.00;33.60
24730;DHT22;12832;52.392;13.066;2023-04-25T07:38:28;25.00;33.60
24730;DHT22;12832;52.392;13.066;2023-04-25T07:40:55;25.00;33.60
24730;DHT22;12832;52.392;13.066;2023-04-25T07:43:21;25.00;33.60
24730;DHT22;12832;52.392;13.066;2023-04-25T07:45:47;25.00;33.50
24730;DHT22;12832;52.392;13.066;2023-04-25T07:48:19;25.00;33.40
24730;DHT22;12832;52.392;13.066;2023-04-25T07:50:45;25.00;33.10
24730;DHT22;12832;52.392;13.066;2023-04-25T07:53:11;25.00;33.20
24730;DHT22;12832;52.392;13.066;2023-04-25T07:55:37;25.00;33.40
24730;DHT22;12832;52.392;13.066;2023-04-25T07:58:07;25.00;33.60
24730;DHT22;12832;52.392;13.066;2023-04-25T08:00:33;24.90;33.30
24730;DHT22;12832;52.392;13.066;2023-04-25T08:02:59;24.90;33.20
24730;DHT22;12832;52.392;13.066;2023-04-25T08:05:26;24.90;33.20
24730;DHT22;12832;52.392;13.066;2023-04-25T08:07:54;24.90;33.30
24730;DHT22;12832;52.392;13.066;2023-04-25T08:10:20;24.90;33.30
24730;DHT22;12832;52.392;13.066;2023-04-25T08:12:49;24.90;33.20
24730;DHT22;12832;52.392;13.066;2023-04-25T08:15:15;24.90;33.40
24730;DHT22;12832;52.392;13.066;2023-04-25T08:17:42;24.90;33.60
24730;DHT22;12832;52.392;13.066;2023-04-25T08:20:10;24.90;33.60
24730;DHT22;12832;52.392;13.066;2023-04-25T08:22:36;24.90;33.80
24730;DHT22;12832;52.392;13.066;2023-04-25T08:25:03;24.90;33.90
24730;DHT22;12832;52.392;13.066;2023-04-25T08:27:30;24.90;34.00
24730;DHT22;12832;52.392;13.066;2023-04-25T08:29:56;24.90;34.70
24730;DHT22;12832;52.392;13.066;2023-04-25T08:32:24;24.90;34.10
24730;DHT22;12832;52.392;13.066;2023-04-25T08:34:50;24.90;34.20
24730;DHT22;12832;52.392;13.066;2023-04-25T08:37:20;24.90;34.30
24730;DHT22;12832;52.392;13.066;2023-04-25T08:39:47;24.90;34.30
24730;DHT22;12832;52.392;13.066;2023-04-25T08:42:15;24.90;34.30
24730;DHT22;12832;52.392;13.066;2023-04-25T08:44:41;24.90;34.30
24730;DHT22;12832;52.392;13.066;2023-04-25T08:47:08;24.90;34.20
24730;DHT22;12832;52.392;13.066;2023-04-25T08:49:35;24.90;34.20
24730;DHT22;12832;52.392;13.066;2023-04-25T08:52:03;24.80;34.20
24730;DHT22;12832;52.392;13.066;2023-04-25T08:54:32;24.90;34.20
24730;DHT22;12832;52.392;13.066;2023-04-25T08:57:02;24.80;34.10
24730;DHT22;12832;52.392;13.066;2023-04-25T08:59:30;24.90;34.20
24730;DHT22;12832;52.392;13.066;2023-04-25T09:01:57;24.90;34.30
24730;DHT22;12832;52.392;13.066;2023-04-25T09:04:24;24.80;34.30
24730;DHT22;12832;52.392;13.066;2023-04-25T09:06:50;24.90;34.20
24730;DHT22;12832;52.392;13.066;2023-04-25T09:09:16;24.80;34.20
24730;DHT22;12832;52.392;13.066;2023-04-25T09:11:42;24.80;34.20
24730;DHT22;12832;52.392;13.066;2023-04-25T09:14:20;24.80;34.20
24730;DHT22;12832;52.392;13.066;2023-04-25T09:19:23;24.90;34.30
24730;DHT22;12832;52.392;13.066;2023-04-25T09:22:06;24.80;34.20
24730;DHT22;12832;52.392;13.066;2023-04-25T09:24:36;24.90;34.20
24730;DHT22;12832;52.392;13.066;2023-04-25T09:27:06;24.80;34.20
24730;DHT22;12832;52.392;13.066;2023-04-25T09:29:35;24.80;34.20
24730;DHT22;12832;52.392;13.066;2023-04-25T09:32:25;24.80;34.30
24730;DHT22;12832;52.392;13.066;2023-04-25T09:34:56;24.80;34.20
24730;DHT22;12832;52.392;13.066;2023-04-25T09:37:29;24.80;34.20
24730;DHT22;12832;52.392;13.066;2023-04-25T09:39:58;24.80;34.20
24730;DHT22;12832;52.392;13.066;2023-04-25T09:42:27;24.80;34.20
24730;DHT22;12832;52.392;13.066;2023-04-25T09:44:55;24.90;34.00
24730;DHT22;12832;52.392;13.066;2023-04-25T09:47:25;24.80;33.80
24730;DHT22;12832;52.392;13.066;2023-04-25T09:49:53;24.80;33.70
24730;DHT22;12832;52.392;13.066;2023-04-25T09:52:21;24.80;33.50
24730;DHT22;12832;52.392;13.066;2023-04-25T09:54:50;24.80;33.30
24730;DHT22;12832;52.392;13.066;2023-04-25T09:57:19;24.80;33.30
24730;DHT22;12832;52.392;13.066;2023-04-25T09:59:46;24.80;33.40
24730;DHT22;12832;52.392;13.066;2023-04-25T10:02:15;24.80;33.20
24730;DHT22;12832;52.392;13.066;2023-04-25T10:04:45;24.80;33.10
24730;DHT22;12832;52.392;13.066;2023-04-25T10:07:13;24.80;32.90
24730;DHT22;12832;52.392;13.066;2023-04-25T10:09:40;24.80;33.10
24730;DHT22;12832;52.392;13.066;2023-04-25T10:12:07;24.80;33.20
24730;DHT22;12832;52.392;13.066;2023-04-25T10:14:34;24.80;33.20
24730;DHT22;12832;52.392;13.066;2023-04-25T10:17:01;24.80;33.10
24730;DHT22;12832;52.392;13.066;2023-04-25T10:19:27;24.80;33.00
24730;DHT22;12832;52.392;13.066;2023-04-25T10:24:46;24.80;33.00
24730;DHT22;12832;52.392;13.066;2023-04-25T10:27:13;24.80;33.20
24730;DHT22;12832;52.392;13.066;2023-04-25T10:29:41;24.80;33.20
24730;DHT22;12832;52.392;13.066;2023-04-25T10:32:09;24.80;33.10
24730;DHT22;12832;52.392;13.066;2023-04-25T10:34:43;24.80;33.10
24730;DHT22;12832;52.392;13.066;2023-04-25T10:37:12;24.80;33.20
24730;DHT22;12832;52.392;13.066;2023-04-25T10:39:40;24.80;34.00
24730;DHT22;12832;52.392;13.066;2023-04-25T10:42:07;24.80;33.40
24730;DHT22;12832;52.392;13.066;2023-04-25T10:44:34;24.80;33.40
24730;DHT22;12832;52.392;13.066;2023-04-25T10:47:01;24.70;33.30
24730;DHT22;12832;52.392;13.066;2023-04-25T10:49:36;24.70;33.30
24730;DHT22;12832;52.392;13.066;2023-04-25T10:52:17;24.70;33.40
24730;DHT22;12832;52.392;13.066;2023-04-25T10:54:56;24.70;33.40
24730;DHT22;12832;52.392;13.066;2023-04-25T10:57:27;24.70;33.50
24730;DHT22;12832;52.392;13.066;2023-04-25T11:00:05;24.80;33.70
24730;DHT22;12832;52.392;13.066;2023-04-25T11:02:37;24.80;33.70
24730;DHT22;12832;52.392;13.066;2023-04-25T11:05:04;24.70;33.70
24730;DHT22;12832;52.392;13.066;2023-04-25T11:07:54;24.70;33.50
24730;DHT22;12832;52.392;13.066;2023-04-25T11:10:34;24.70;33.50
24730;DHT22;12832;52.392;13.066;2023-04-25T11:13:03;24.70;33.30
24730;DHT22;12832;52.392;13.066;2023-04-25T11:15:30;24.70;33.30
24730;DHT22;12832;52.392;13.066;2023-04-25T11:17:56;24.80;32.90
24730;DHT22;12832;52.392;13.066;2023-04-25T11:20:25;24.70;32.60
24730;DHT22;12832;52.392;13.066;2023-04-25T11:22:52;24.70;32.60
24730;DHT22;12832;52.392;13.066;2023-04-25T11:25:18;24.70;32.70
24730;DHT22;12832;52.392;13.066;2023-04-25T11:27:55;24.70;32.70
24730;DHT22;12832;52.392;13.066;2023-04-25T11:30:24;24.70;32.80
24730;DHT22;12832;52.392;13.066;2023-04-25T11:32:51;24.80;32.80
24730;DHT22;12832;52.392;13.066;2023-04-25T11:35:19;24.70;32.70
24730;DHT22;12832;52.392;13.066;2023-04-25T11:37:46;24.80;32.90
24730;DHT22;12832;52.392;13.066;2023-04-25T11:40:12;24.70;32.80
24730;DHT22;12832;52.392;13.066;2023-04-25T11:42:39;24.70;32.90
24730;DHT22;12832;52.392;13.066;2023-04-25T11:45:06;24.70;32.70
24730;DHT22;12832;52.392;13.066;2023-04-25T11:47:33;24.70;32.60
24730;DHT22;12832;52.392;13.066;2023-04-25T11:50:01;24.80;32.70
24730;DHT22;12832;52.392;13.066;2023-04-25T11:52:42;24.70;32.50
24730;DHT22;12832;52.392;13.066;2023-04-25T11:55:19;24.70;32.50
24730;DHT22;12832;52.392;13.066;2023-04-25T11:57:49;24.70;32.70
24730;DHT22;12832;52.392;13.066;2023-04-25T12:00:21;24.70;32.70
24730;DHT22;12832;52.392;13.066;2023-04-25T12:02:52;24.70;32.80
24730;DHT22;12832;52.392;13.066;2023-04-25T12:05:19;24.70;32.50
24730;DHT22;12832;52.392;13.066;2023-04-25T12:07:58;24.70;32.30
24730;DHT22;12832;52.392;13.066;2023-04-25T12:10:24;24.70;32.20
24730;DHT22;12832;52.392;13.066;2023-04-25T12:12:51;24.70;32.30
24730;DHT22;12832;52.392;13.066;2023-04-25T12:15:22;24.70;32.20
24730;DHT22;12832;52.392;13.066;2023-04-25T12:17:50;24.70;32.30
24730;DHT22;12832;52.392;13.066;2023-04-25T12:20:23;24.70;32.30
24730;DHT22;12832;52.392;13.066;2023-04-25T12:22:51;24.70;32.30
24730;DHT22;12832;52.392;13.066;2023-04-25T12:25:39;24.70;32.20
24730;DHT22;12832;52.392;13.066;2023-04-25T12:28:19;24.70;32.20
24730;DHT22;12832;52.392;13.066;2023-04-25T12:31:06;24.70;32.10
24730;DHT22;12832;52.392;13.066;2023-04-25T12:33:34;24.70;32.10
24730;DHT22;12832;52.392;13.066;2023-04-25T12:36:01;24.70;32.10
24730;DHT22;12832;52.392;13.066;2023-04-25T12:38:39;24.70;32.20
24730;DHT22;12832;52.392;13.066;2023-04-25T12:41:06;24.70;32.10
24730;DHT22;12832;52.392;13.066;2023-04-25T12:43:32;24.70;32.10
24730;DHT22;12832;52.392;13.066;2023-04-25T12:45:59;24.60;32.00
24730;DHT22;12832;52.392;13.066;2023-04-25T12:48:25;24.70;32.00
24730;DHT22;12832;52.392;13.066;2023-04-25T12:50:52;24.60;32.00
24730;DHT22;12832;52.392;13.066;2023-04-25T12:53:22;24.70;32.00
24730;DHT22;12832;52.392;13.066;2023-04-25T12:55:50;24.60;32.10
24730;DHT22;12832;52.392;13.066;2023-04-25T12:58:18;24.60;32.20
24730;DHT22;12832;52.392;13.066;2023-04-25T13:00:45;24.70;32.00
24730;DHT22;12832;52.392;13.066;2023-04-25T13:03:11;24.70;32.10
24730;DHT22;12832;52.392;13.066;2023-04-25T13:05:39;24.60;32.10
24730;DHT22;12832;52.392;13.066;2023-04-25T13:08:05;24.60;32.10
24730;DHT22;12832;52.392;13.066;2023-04-25T13:10:31;24.60;32.10
24730;DHT22;12832;52.392;13.066;2023-04-25T13:12:59;24.60;32.40
24730;DHT22;12832;52.392;13.066;2023-04-25T13:15:27;24.60;32.40
24730;DHT22;12832;52.392;13.066;2023-04-25T13:17:53;24.60;32.20
24730;DHT22;12832;52.392;13.066;2023-04-25T13:20:19;24.60;32.20
24730;DHT22;12832;52.392;13.066;2023-04-25T13:22:48;24.60;32.30
24730;DHT22;12832;52.392;13.066;2023-04-25T13:25:14;24.60;32.30
24730;DHT22;12832;52.392;13.066;2023-04-25T13:27:41;24.60;32.30
24730;DHT22;12832;52.392;13.066;2023-04-25T13:30:07;24.60;32.30
24730;DHT22;12832;52.392;13.066;2023-04-25T13:32:35;24.60;32.20
24730;DHT22;12832;52.392;13.066;2023-04-25T13:35:07;24.60;31.90
24730;DHT22;12832;52.392;13.066;2023-04-25T13:37:36;24.60;31.80
24730;DHT22;12832;52.392;13.066;2023-04-25T13:40:05;24.60;31.50
24730;DHT22;12832;52.392;13.066;2023-04-25T13:42:32;24.60;31.40
24730;DHT22;12832;52.392;13.066;2023-04-25T13:44:58;24.60;31.30
24730;DHT22;12832;52.392;13.066;2023-04-25T13:47:25;24.60;31.30
24730;DHT22;12832;52.392;13.066;2023-04-25T13:49:52;24.60;31.20
24730;DHT22;12832;52.392;13.066;2023-04-25T13:52:18;24.60;31.10
24730;DHT22;12832;52.392;13.066;2023-04-25T13:54:44;24.60;31.00
24730;DHT22;12832;52.392;13.066;2023-04-25T13:57:10;24.60;31.00
24730;DHT22;12832;52.392;13.066;2023-04-25T13:59:37;24.60;31.10
24730;DHT22;12832;52.392;13.066;2023-04-25T14:02:04;24.60;31.30
24730;DHT22;12832;52.392;13.066;2023-04-25T14:04:30;24.60;31.30
24730;DHT22;12832;52.392;13.066;2023-04-25T14:06:57;24.60;31.30
24730;DHT22;12832;52.392;13.066;2023-04-25T14:09:23;24.60;31.40
24730;DHT22;12832;52.392;13.066;2023-04-25T14:11:51;24.60;31.80
24730;DHT22;12832;52.392;13.066;2023-04-25T14:14:21;24.60;31.80
24730;DHT22;12832;52.392;13.066;2023-04-25T14:16:48;24.60;31.80
24730;DHT22;12832;52.392;13.066;2023-04-25T14:19:17;24.60;31.80
24730;DHT22;12832;52.392;13.066;2023-04-25T14:21:45;24.60;31.80
24730;DHT22;12832;52.392;13.066;2023-04-25T14:24:13;24.60;32.00
24730;DHT22;12832;52.392;13.066;2023-04-25T14:26:39;24.60;32.00
24730;DHT22;12832;52.392;13.066;2023-04-25T14:29:07;24.60;32.00
24730;DHT22;12832;52.392;13.066;2023-04-25T14:31:35;24.60;32.00
24730;DHT22;12832;52.392;13.066;2023-04-25T14:34:02;24.60;32.10
24730;DHT22;12832;52.392;13.066;2023-04-25T14:36:28;24.60;32.70
24730;DHT22;12832;52.392;13.066;2023-04-25T14:38:54;24.60;32.00
24730;DHT22;12832;52.392;13.066;2023-04-25T14:41:21;24.60;32.00
24730;DHT22;12832;52.392;13.066;2023-04-25T14:43:47;24.60;31.90
24730;DHT22;12832;52.392;13.066;2023-04-25T14:46:13;24.60;31.80
24730;DHT22;12832;52.392;13.066;2023-04-25T14:48:40;24.60;31.80
24730;DHT22;12832;52.392;13.066;2023-04-25T14:51:06;24.60;31.80
24730;DHT22;12832;52.392;13.066;2023-04-25T14:53:32;24.60;31.80
24730;DHT22;12832;52.392;13.066;2023-04-25T14:55:59;24.60;31.80
24730;DHT22;12832;52.392;13.066;2023-04-25T14:58:25;24.60;31.80
24730;DHT22;12832;52.392;13.066;2023-04-25T15:00:51;24.60;31.70
24730;DHT22;12832;52.392;13.066;2023-04-25T15:03:18;24.60;31.80
24730;DHT22;12832;52.392;13.066;2023-04-25T15:05:44;24.60;32.40
24730;DHT22;12832;52.392;13.066;2023-04-25T15:08:10;24.50;31.60
24730;DHT22;12832;52.392;13.066;2023-04-25T15:10:36;24.50;31.40
24730;DHT22;12832;52.392;13.066;2023-04-25T15:13:03;24.60;31.30
24730;DHT22;12832;52.392;13.066;2023-04-25T15:15:29;24.60;31.30
24730;DHT22;12832;52.392;13.066;2023-04-25T15:17:56;24.60;31.80
24730;DHT22;12832;52.392;13.066;2023-04-25T15:20:25;24.50;30.80
24730;DHT22;12832;52.392;13.066;2023-04-25T15:22:51;24.50;30.60